»·PEaware :: N346CP KBFL-KMHV

N346CP :: KBFL-KMHV

FLIGHT INFORMATION

Flight Status: Arrived
Operator: Privately registered:
United States
More flights under this callsign
Pilot: Ron M. (31128)
Aircraft: CESSNA 172 SKYHAWK
(C172)
More flights by this aircraft type
Origin: KBFL Meadows
United States
Destination: KMHV Mojave
United States
More flights between these airports :: More routes between these airports
Route:
File this flight plan on PilotEdge
Remarks:
Altitude:
(Current/Filed)
9,500ft
Speed:
(Current/Filed)
0kts
Departed: 30-Dec-20 08:33 PM
Arrived: 30-Dec-20 09:28 PM
Distance/Time
Traveled:
50nm/0:54
Distance/Time
To Go:
Arrived

Flight Plot

Page will automatically refresh every two minutes.


Map Options




Map Legend


Flown Route
Filed Route
Departure Airport
Arrival Airport
Navaid (VOR, NDB)
Fix

Horizontal Profiles

Position Reports

Time Latitude Longitude Heading Altitude Ground
Speed
30-Dec-20 20:31 35.425734 -119.045116 232 479ft 0kts
30-Dec-20 20:32 35.426184 -119.046937 316 477ft 44kts
30-Dec-20 20:33 35.438254 -119.065686 259 1240ft 81kts
30-Dec-20 20:34 35.420685 -119.074070 158 2139ft 74kts
30-Dec-20 20:35 35.404144 -119.059987 127 2956ft 74kts
30-Dec-20 20:36 35.392757 -119.039884 109 3763ft 71kts
30-Dec-20 20:37 35.386808 -119.017078 92 4507ft 71kts
30-Dec-20 20:38 35.375715 -118.995440 112 5225ft 79kts
30-Dec-20 20:39 35.364130 -118.972747 124 5930ft 84kts
30-Dec-20 20:40 35.349084 -118.950996 129 6613ft 86kts
30-Dec-20 20:41 35.335286 -118.928082 102 7251ft 84kts
30-Dec-20 20:42 35.328847 -118.901233 71 7869ft 81kts
30-Dec-20 20:43 35.328909 -118.873468 80 8483ft 82kts
30-Dec-20 20:44 35.323852 -118.844666 95 9054ft 88kts
30-Dec-20 20:45 35.312695 -118.816739 116 9482ft 100kts
30-Dec-20 20:46 35.309306 -118.809476 115 9517ft 101kts
30-Dec-20 20:47 35.300729 -118.782389 117 9595ft 105kts
30-Dec-20 20:48 35.286647 -118.751037 118 9670ft 107kts
30-Dec-20 20:49 35.273009 -118.720236 112 9714ft 109kts
30-Dec-20 20:50 35.260672 -118.685962 106 9653ft 112kts
30-Dec-20 20:51 35.249789 -118.652724 106 9523ft 110kts
30-Dec-20 20:52 35.246979 -118.642527 106 9503ft 109kts
30-Dec-20 20:53 35.240545 -118.617581 106 9409ft 113kts
30-Dec-20 20:54 35.240545 -118.617581 106 9409ft 113kts
30-Dec-20 20:55 35.231396 -118.586400 99 9305ft 111kts
30-Dec-20 20:56 35.227134 -118.568652 108 9252ft 113kts
30-Dec-20 20:57 35.220296 -118.547340 109 9493ft 103kts
30-Dec-20 20:58 35.207534 -118.515068 120 9463ft 106kts
30-Dec-20 20:59 35.191286 -118.483739 125 9582ft 111kts
30-Dec-20 21:00 35.173291 -118.453023 122 9401ft 110kts
30-Dec-20 21:01 35.156745 -118.420773 115 8707ft 112kts
30-Dec-20 21:02 35.141625 -118.388151 141 7747ft 113kts
30-Dec-20 21:03 35.141518 -118.388010 141 7741ft 113kts
30-Dec-20 21:04 35.122238 -118.361037 129 6416ft 106kts
30-Dec-20 21:05 35.119900 -118.356645 136 6219ft 106kts
30-Dec-20 21:06 35.119900 -118.356645 136 6219ft 106kts
30-Dec-20 21:07 35.119900 -118.356645 136 6219ft 106kts
30-Dec-20 21:09 35.115305 -118.350926 143 5937ft 103kts
30-Dec-20 21:10 35.105359 -118.321732 101 5070ft 102kts
30-Dec-20 21:11 35.105359 -118.321732 101 5070ft 102kts
30-Dec-20 21:12 35.104278 -118.315940 103 5151ft 96kts
30-Dec-20 21:13 35.100625 -118.289166 97 5267ft 101kts
30-Dec-20 21:14 35.099736 -118.279508 93 5289ft 100kts
30-Dec-20 21:15 35.099246 -118.271615 93 5318ft 101kts
30-Dec-20 21:16 35.096886 -118.235402 94 4828ft 106kts
30-Dec-20 21:17 35.095692 -118.199644 78 4382ft 101kts
30-Dec-20 21:18 35.099406 -118.186872 63 4406ft 99kts
30-Dec-20 21:19 35.103592 -118.173185 85 4383ft 104kts
30-Dec-20 21:20 35.091932 -118.141535 124 4410ft 107kts
30-Dec-20 21:21 35.069795 -118.120899 187 4438ft 108kts
30-Dec-20 21:21 35.049840 -118.138826 232 4288ft 111kts
30-Dec-20 21:23 35.050076 -118.168147 299 4440ft 103kts
30-Dec-20 21:24 35.058075 -118.185633 301 4387ft 101kts
30-Dec-20 21:24 35.067844 -118.192878 20 4202ft 77kts
30-Dec-20 21:25 35.078055 -118.172190 100 3554ft 74kts
30-Dec-20 21:26 35.065253 -118.155548 132 2778ft 44kts
30-Dec-20 21:27 35.062309 -118.153465 224 2764ft 0kts

Navigation Log

Ident Type
Flight plan parsing failed, navigation log unavailable